METAR Data
IDs: Format: Raw Decoded Include TAF

Data at: 1320 UTC 07 Jul 2020

KNQA 071250Z 00000KT 10SM CLR 26/23 A2999
KNQA 071150Z 00000KT 10SM CLR 22/22 A2998
KNQA 071050Z 00000KT 10SM FEW040 22/22 A2996
KNQA 071030Z 00000KT 10SM BKN046 22/21 A2995
KNQA 071000Z AUTO 00000KT 10SM BKN045 BKN050 BKN060 22/22 A2996 RMK A01
KNQA 070955Z AUTO 00000KT 10SM BKN045 OVC055 22/22 A2996 RMK A01
KNQA 070935Z AUTO 00000KT 10SM BKN043 BKN049 BKN055 22/22 A2995 RMK A01
KNQA 070910Z AUTO 00000KT 10SM CLR 22/22 A2995 RMK A01
KNQA 070850Z AUTO 03003KT 10SM CLR 22/22 A2995 RMK A01
KNQA 070830Z AUTO 00000KT 10SM CLR 22/22 A2995 RMK A01
KNQA 070815Z AUTO 00000KT 10SM CLR 22/22 A2995 RMK A01
KNQA 070750Z AUTO 00000KT 10SM FEW050 23/22 A2995 RMK A01
KNQA 070730Z AUTO 00000KT 10SM CLR 23/22 A2994 RMK A01
KNQA 070715Z AUTO 00000KT 10SM CLR 23/22 A2994 RMK A01
KNQA 070655Z AUTO 00000KT 10SM CLR 23/21 A2995 RMK A01
KNQA 070635Z AUTO 00000KT 10SM CLR 23/21 A2995 RMK A01
KNQA 070550Z 00000KT 10SM CLR 23/21 A2996
KNQA 070450Z 00000KT 10SM CLR 24/22 A2996
KNQA 070350Z 00000KT 10SM CLR 25/22 A2996
KNQA 070250Z 16005KT 10SM SCT050 BKN085 27/20 A2995
KNQA 070150Z 15005KT 10SM SCT050 27/24 A2993
KNQA 070050Z 00000KT 10SM CLR 30/24 A2993
KNQA 062350Z 22007KT 10SM BKN055 BKN080 31/23 A2991
KNQA 062250Z 13003KT 10SM FEW060 33/21 A2991
KNQA 062150Z 05003KT 10SM FEW050 33/22 A2991
KNQA 062050Z 07004KT 10SM FEW050 33/21 A2993
KNQA 061950Z 05006KT 10SM FEW049 33/23 A2994
KNQA 061850Z 05006KT 10SM FEW040 33/23 A2996
KNQA 061750Z 08003KT 10SM FEW035 32/22 A2997
KNQA 061650Z 10004KT 10SM CLR 31/22 A2997
KNQA 061550Z 14004KT 10SM CLR 29/23 A2998
KNQA 061450Z 06003KT 10SM CLR 28/23 A2998
KNQA 061350Z 03003KT 10SM CLR 26/23 A2999
KNQA 061325Z AUTO 00000KT 10SM CLR 25/23 A2998 RMK A01
KNQA 061315Z AUTO 00000KT 10SM CLR 25/23 A2998 RMK A01
KNQA 061255Z AUTO 00000KT 10SM CLR 24/23 A2998 RMK A01
KNQA 061235Z AUTO VRB03KT 10SM CLR 24/23 A2997 RMK A01
KNQA 061215Z AUTO 00000KT 10SM CLR 24/22 A2997 RMK A01
KNQA 061155Z AUTO 00000KT 7SM CLR 22/22 A2996 RMK A01
KNQA 061135Z AUTO 00000KT 10SM CLR 22/22 A2996 RMK A01
KNQA 061115Z AUTO 00000KT 10SM CLR 22/21 A2996 RMK A01
KNQA 061050Z AUTO 06004KT 10SM CLR 22/22 A2995 RMK A01
KNQA 061035Z AUTO 11003KT 10SM FEW090 22/21 A2995 RMK A01
KNQA 061015Z AUTO 00000KT 10SM SCT090 22/22 A2994 RMK A01
KNQA 060955Z AUTO 00000KT 10SM SCT085 SCT100 22/22 A2994 RMK A01
KNQA 060935Z AUTO 00000KT 10SM BKN085 22/22 A2993 RMK A01
KNQA 060915Z AUTO 00000KT 10SM FEW085 22/21 A2993 RMK A01
KNQA 060855Z AUTO 01004KT 10SM CLR 22/22 A2992 RMK A01
KNQA 060835Z AUTO 03005KT 10SM CLR 22/22 A2991 RMK A01
KNQA 060815Z AUTO 03003KT 10SM CLR 22/22 A2991 RMK A01
KNQA 060750Z AUTO 02003KT 10SM CLR 22/22 A2990 RMK A01
KNQA 060735Z AUTO 00000KT 10SM CLR 22/22 A2990 RMK A01
KNQA 060715Z AUTO 00000KT 10SM CLR 23/22 A2990 RMK A01
KNQA 060655Z AUTO 00000KT 10SM CLR 22/22 A2990 RMK A01
KNQA 060635Z AUTO 00000KT 10SM CLR 22/22 A2990 RMK A01
KNQA 060615Z AUTO 32004KT 10SM CLR 23/22 A2990 RMK A01
KNQA 060555Z AUTO 00000KT 10SM CLR 23/22 A2991 RMK A01
KNQA 060535Z AUTO 00000KT 10SM CLR 23/23 A2991 RMK A01
KNQA 060515Z AUTO 00000KT 10SM CLR 23/23 A2992 RMK A01
KNQA 060455Z AUTO 00000KT 10SM CLR 23/23 A2992 RMK A01
KNQA 060435Z AUTO 00000KT 10SM CLR 24/23 A2992 RMK A01
KNQA 060415Z AUTO 00000KT 10SM CLR 24/23 A2992 RMK A01
KNQA 060355Z AUTO 00000KT 10SM CLR 24/23 A2991 RMK A01
KNQA 060335Z AUTO 00000KT 10SM CLR 24/23 A2991 RMK A01
KNQA 060315Z AUTO 00000KT 10SM CLR 24/23 A2992 RMK A01
KNQA 060255Z AUTO 00000KT 10SM CLR 24/23 A2992 RMK A01 P0001
KNQA 060235Z AUTO 00000KT 10SM FEW047 SCT060 SCT120 24/23 A2993 RMK A01
KNQA 060215Z AUTO 00000KT 10SM FEW043 BKN049 BKN065 25/23 A2992 RMK A01
KNQA 060155Z AUTO 00000KT 10SM FEW065 SCT080 BKN120 25/22 A2991 RMK A01
KNQA 060135Z AUTO 00000KT 10SM CLR 26/22 A2991 RMK A01